Time;durP1;ratioP1;P1;durP2;ratioP2;P2;SDS_P1;SDS_P2;PMS_P1;PMS_P2;Temp;Humidity;BMP_temperature;BMP_pressure;BME280_temperature;BME280_humidity;BME280_pressure;Samples;Min_cycle;Max_cycle;Signal;HPM_P1;HPM_P2
2022/01/07 00:00:06;;;;;;;12.40;4.40;;;;;;;2.88;84.81;101470.44;5093933;28;19912;-35
2022/01/07 00:02:31;;;;;;;14.50;4.88;;;;;;;2.90;84.38;101467.59;5093309;28;20028;-35
2022/01/07 00:04:56;;;;;;;10.77;4.90;;;;;;;2.88;84.08;101457.06;5093905;28;20090;-35
2022/01/07 00:07:22;;;;;;;8.83;4.37;;;;;;;2.76;84.91;101437.00;5093172;28;20092;-35
2022/01/07 00:09:47;;;;;;;11.27;4.97;;;;;;;2.94;83.95;101464.41;5092946;28;20024;-35
2022/01/07 00:12:13;;;;;;;12.77;5.57;;;;;;;2.96;84.10;101458.91;5092706;28;20095;-35
2022/01/07 00:14:38;;;;;;;12.13;4.83;;;;;;;2.92;84.81;101447.69;5093268;28;20357;-35
2022/01/07 00:17:04;;;;;;;12.70;5.30;;;;;;;2.82;85.07;101439.84;5092984;28;20465;-35
2022/01/07 00:19:29;;;;;;;14.60;6.53;;;;;;;2.87;85.59;101438.50;5093013;28;20523;-35
2022/01/07 00:21:55;;;;;;;9.37;5.13;;;;;;;2.84;85.82;101435.19;5093665;28;20028;-35
2022/01/07 00:24:20;;;;;;;11.52;4.50;;;;;;;2.72;86.04;101416.97;5093702;28;20028;-35
2022/01/07 00:26:45;;;;;;;11.73;5.17;;;;;;;2.79;86.39;101432.19;5092918;28;20056;-35
2022/01/07 00:29:11;;;;;;;9.23;4.77;;;;;;;2.72;86.93;101423.13;5093232;28;20028;-35
2022/01/07 00:31:36;;;;;;;10.93;4.50;;;;;;;2.77;86.62;101428.00;5092757;28;20127;-35
2022/01/07 00:34:01;;;;;;;10.63;4.97;;;;;;;2.67;86.72;101412.13;5093134;28;20028;-35
2022/01/07 00:36:27;;;;;;;13.23;5.37;;;;;;;2.75;86.97;101420.16;5092747;28;20107;-35
2022/01/07 00:38:52;;;;;;;11.10;4.87;;;;;;;2.68;86.99;101413.78;5093586;28;20074;-35
2022/01/07 00:41:18;;;;;;;12.03;5.03;;;;;;;2.68;88.27;101410.28;5093261;28;20035;-35
2022/01/07 00:43:43;;;;;;;15.97;5.93;;;;;;;2.70;87.92;101402.97;5093039;28;20028;-35
2022/01/07 00:46:08;;;;;;;13.00;4.73;;;;;;;2.69;88.75;101394.13;5092749;28;20104;-35
2022/01/07 00:48:34;;;;;;;11.32;3.83;;;;;;;2.68;89.34;101383.59;5093132;28;20024;-35
2022/01/07 00:50:59;;;;;;;10.03;4.20;;;;;;;2.66;89.93;101383.75;5092225;28;20031;-35
2022/01/07 00:53:24;;;;;;;10.97;4.83;;;;;;;2.60;90.21;101378.25;5093114;28;20016;-35
2022/01/07 00:55:50;;;;;;;12.10;5.07;;;;;;;2.49;90.58;101366.03;5093040;28;20032;-35
2022/01/07 00:58:15;;;;;;;13.63;4.40;;;;;;;2.57;90.34;101363.38;5092588;28;20020;-35
2022/01/07 01:00:41;;;;;;;7.83;4.27;;;;;;;2.38;90.02;101326.31;5096655;28;20031;-35
2022/01/07 01:03:06;;;;;;;11.30;4.53;;;;;;;2.56;90.56;101359.88;5096168;28;20035;-35
2022/01/07 01:05:32;;;;;;;8.00;3.90;;;;;;;2.56;90.86;101357.22;5095821;28;20254;-35
2022/01/07 01:07:58;;;;;;;;;;;;;;;2.60;91.17;101363.06;5096125;28;20066;-35
2022/01/07 01:10:25;;;;;;;8.82;4.43;;;;;;;2.40;90.35;101325.19;5095604;28;19908;-35
2022/01/07 01:12:50;;;;;;;13.20;4.38;;;;;;;2.60;91.41;101347.03;5096091;28;20032;-35
2022/01/07 01:15:21;;;;;;;11.45;4.00;;;;;;;2.58;90.43;101338.34;5078025;28;20374;-35
2022/01/07 01:17:47;;;;;;;12.05;4.82;;;;;;;2.57;90.20;101326.84;5096372;28;20025;-34
2022/01/07 01:20:13;;;;;;;10.63;4.53;;;;;;;2.60;90.00;101346.22;5095708;28;20048;-35
2022/01/07 01:22:39;;;;;;;17.25;4.97;;;;;;;2.60;90.39;101336.38;5096164;28;20028;-35
2022/01/07 01:25:05;;;;;;;;;;;;;;;2.64;89.96;101337.72;5096477;28;20026;-35
2022/01/07 01:27:30;;;;;;;15.38;5.15;;;;;;;2.59;89.66;101326.69;5095425;28;19916;-35
2022/01/07 01:29:56;;;;;;;12.35;4.63;;;;;;;2.62;88.68;101323.66;5095978;28;20028;-35
2022/01/07 01:32:21;;;;;;;12.53;4.23;;;;;;;2.64;88.81;101321.69;5095441;28;20105;-35
2022/01/07 01:34:46;;;;;;;12.57;3.83;;;;;;;2.62;89.56;101318.31;5095806;28;20024;-35
2022/01/07 01:37:12;;;;;;;8.17;3.63;;;;;;;2.65;88.82;101319.84;5096164;28;20024;-35
2022/01/07 01:39:37;;;;;;;8.37;4.27;;;;;;;2.60;88.98;101307.00;5095933;28;20131;-35
2022/01/07 01:42:03;;;;;;;11.27;4.70;;;;;;;2.69;88.27;101314.00;5095170;28;20510;-35
2022/01/07 01:44:28;;;;;;;8.23;3.70;;;;;;;2.60;88.34;101298.16;5095437;28;20115;-35
2022/01/07 01:46:54;;;;;;;9.87;4.23;;;;;;;2.58;89.23;101268.94;5095044;28;20026;-35
2022/01/07 01:49:20;;;;;;;11.02;4.45;;;;;;;2.51;88.01;101257.28;5096021;28;20055;-35
2022/01/07 01:51:47;;;;;;;10.55;3.80;;;;;;;2.71;88.19;101279.09;5095134;28;20380;-35
2022/01/07 01:54:12;;;;;;;;;;;;;;;2.74;87.64;101287.63;5095520;28;20032;-35
2022/01/07 01:56:37;;;;;;;7.57;3.50;;;;;;;2.73;87.69;101285.09;5095089;28;19968;-35
2022/01/07 01:59:03;;;;;;;7.78;3.63;;;;;;;2.73;87.79;101277.09;5095843;28;20036;-35
2022/01/07 02:01:28;;;;;;;10.77;4.70;;;;;;;2.75;87.54;101294.63;5095091;28;20111;-35
2022/01/07 02:03:54;;;;;;;9.10;3.60;;;;;;;2.67;87.77;101278.59;5095233;28;20421;-35
2022/01/07 02:06:19;;;;;;;9.47;3.87;;;;;;;2.72;87.83;101278.09;5095213;28;20106;-35
2022/01/07 02:08:45;;;;;;;6.80;3.30;;;;;;;2.71;88.04;101277.28;5094989;28;20338;-35
2022/01/07 02:11:10;;;;;;;11.63;4.00;;;;;;;2.63;88.25;101255.91;5093605;28;20028;-35
2022/01/07 02:13:36;;;;;;;7.70;3.30;;;;;;;2.75;87.39;101275.09;5095074;28;20429;-35
2022/01/07 02:16:01;;;;;;;9.18;3.25;;;;;;;2.74;87.89;101268.94;5095270;28;20024;-36
2022/01/07 02:18:27;;;;;;;9.35;2.90;;;;;;;2.75;87.12;101265.25;5094652;28;20047;-35
2022/01/07 02:20:52;;;;;;;12.93;3.57;;;;;;;2.78;87.63;101259.56;5095054;28;20106;-36
2022/01/07 02:23:19;;;;;;;8.18;3.00;;;;;;;2.80;87.24;101267.41;5094604;28;20024;-36
2022/01/07 02:25:47;;;;;;;10.07;3.05;;;;;;;2.79;87.45;101260.41;5094813;28;20036;-35
2022/01/07 02:28:13;;;;;;;7.57;2.75;;;;;;;2.72;86.84;101238.03;5094760;28;20032;-36
2022/01/07 02:30:38;;;;;;;6.40;2.83;;;;;;;2.79;87.87;101250.56;5094680;28;20479;-35
2022/01/07 02:33:04;;;;;;;8.73;2.63;;;;;;;2.72;88.28;101219.34;5094347;28;20024;-36
2022/01/07 02:35:32;;;;;;;8.47;2.80;;;;;;;2.71;88.96;101234.53;5094917;28;20031;-35
2022/01/07 02:37:58;;;;;;;7.05;2.60;;;;;;;2.77;89.15;101233.84;5094822;28;20042;-36
2022/01/07 02:40:23;;;;;;;7.05;2.50;;;;;;;2.76;89.99;101240.19;5094549;28;20034;-36
2022/01/07 02:42:49;;;;;;;7.40;2.83;;;;;;;2.69;90.83;101236.56;5094535;28;20020;-36
2022/01/07 02:45:15;;;;;;;13.43;3.20;;;;;;;2.71;91.13;101244.41;5094393;28;20051;-36
2022/01/07 02:47:49;;;;;;;9.95;3.65;;;;;;;2.64;92.58;101241.56;5094074;28;20039;-36
2022/01/07 02:50:21;;;;;;;6.35;2.63;;;;;;;2.67;93.40;101232.38;5094431;28;20394;-35
2022/01/07 02:52:47;;;;;;;8.93;3.28;;;;;;;2.54;94.08;101241.75;5094502;28;20028;-35
2022/01/07 02:55:13;;;;;;;8.43;3.20;;;;;;;2.56;94.74;101236.25;5094153;28;20035;-35
2022/01/07 02:57:38;;;;;;;7.72;2.60;;;;;;;2.44;95.12;101230.41;5093835;28;20024;-36
2022/01/07 03:00:06;;;;;;;8.73;3.20;;;;;;;2.43;95.57;101227.91;5093865;28;20024;-36
2022/01/07 03:02:32;;;;;;;9.00;3.08;;;;;;;2.43;96.58;101222.56;5093671;28;20054;-35
2022/01/07 03:04:57;;;;;;;6.53;2.83;;;;;;;2.41;96.43;101222.75;5094274;28;20020;-36
2022/01/07 03:07:22;;;;;;;7.33;2.93;;;;;;;2.30;96.85;101207.91;5094054;28;20039;-35
2022/01/07 03:09:48;;;;;;;12.73;3.97;;;;;;;2.27;96.93;101213.56;5093782;28;20379;-36
2022/01/07 03:12:13;;;;;;;4.87;3.03;;;;;;;2.28;98.10;101215.22;5093425;28;20028;-36
2022/01/07 03:14:38;;;;;;;11.67;3.50;;;;;;;2.19;98.06;101199.41;5093508;28;20079;-35
2022/01/07 03:17:03;;;;;;;8.40;3.43;;;;;;;2.15;98.63;101198.06;5075762;28;20050;-36
2022/01/07 03:19:29;;;;;;;8.20;3.30;;;;;;;2.14;99.17;101197.22;5093154;28;20051;-36
2022/01/07 03:21:54;;;;;;;15.70;3.70;;;;;;;2.10;99.35;101203.06;5094243;28;20035;-35
2022/01/07 03:24:19;;;;;;;13.57;4.17;;;;;;;1.94;99.80;101186.06;5094442;28;20032;-36
2022/01/07 03:26:45;;;;;;;7.93;3.07;;;;;;;1.98;99.57;101190.06;5093458;28;20348;-35
2022/01/07 03:29:10;;;;;;;9.30;3.20;;;;;;;1.84;100.00;101184.56;5093355;28;20396;-35
2022/01/07 03:31:36;;;;;;;6.23;3.50;;;;;;;1.93;100.00;101195.06;5093365;28;20056;-35
2022/01/07 03:34:02;;;;;;;13.15;3.75;;;;;;;1.94;100.00;101195.91;5093488;28;20024;-35
2022/01/07 03:36:27;;;;;;;7.70;3.40;;;;;;;1.94;100.00;101190.56;5093962;28;20465;-36
2022/01/07 03:38:53;;;;;;;9.13;2.97;;;;;;;1.95;100.00;101193.09;5093415;28;20376;-35
2022/01/07 03:41:19;;;;;;;11.23;4.15;;;;;;;1.99;100.00;101197.06;5093533;28;20383;-35
2022/01/07 03:43:45;;;;;;;10.77;3.83;;;;;;;1.93;100.00;101186.22;5093569;28;20028;-35
2022/01/07 03:46:10;;;;;;;7.33;3.00;;;;;;;1.87;100.00;101163.72;5093240;28;20107;-35
2022/01/07 03:48:35;;;;;;;7.63;3.10;;;;;;;1.97;100.00;101177.72;5093501;28;20032;-35
2022/01/07 03:51:01;;;;;;;8.13;3.37;;;;;;;2.00;100.00;101180.06;5093138;28;20032;-36
2022/01/07 03:53:26;;;;;;;9.20;3.50;;;;;;;2.03;100.00;101176.22;5093724;28;20024;-35
2022/01/07 03:55:53;;;;;;;11.30;4.03;;;;;;;1.93;100.00;101152.38;5093520;28;20502;-35
2022/01/07 03:58:19;;;;;;;10.43;4.40;;;;;;;2.01;100.00;101167.56;5093571;28;20099;-35
2022/01/07 04:00:45;;;;;;;9.07;4.78;;;;;;;1.97;100.00;101161.72;5093397;28;20031;-36
2022/01/07 04:03:13;;;;;;;9.07;3.57;;;;;;;1.96;100.00;101156.56;5093653;28;20476;-35
2022/01/07 04:05:39;;;;;;;7.07;3.80;;;;;;;1.95;100.00;101160.22;5093350;28;20024;-35
2022/01/07 04:08:06;;;;;;;8.55;4.18;;;;;;;1.93;100.00;101147.06;5093592;28;20028;-35
2022/01/07 04:10:31;;;;;;;10.60;4.13;;;;;;;1.91;100.00;101145.56;5093282;28;20051;-36
2022/01/07 04:12:57;;;;;;;7.83;3.70;;;;;;;1.86;100.00;101134.56;5093188;28;20027;-35
2022/01/07 04:15:23;;;;;;;7.67;3.97;;;;;;;1.97;100.00;101150.22;5093299;28;20357;-35
2022/01/07 04:17:50;;;;;;;;;;;;;;;2.03;100.00;101152.22;5093127;28;20028;-36
2022/01/07 04:20:19;;;;;;;6.63;3.17;;;;;;;2.00;100.00;101147.22;5092876;28;19989;-36
2022/01/07 04:22:45;;;;;;;7.63;3.58;;;;;;;2.02;100.00;101154.06;5093171;28;20097;-36
2022/01/07 04:25:17;;;;;;;9.38;4.47;;;;;;;2.04;100.00;101153.88;5093164;28;20028;-35
2022/01/07 04:27:44;;;;;;;6.05;3.70;;;;;;;1.86;100.00;101121.25;5092842;28;20028;-36
2022/01/07 04:30:10;;;;;;;6.82;3.58;;;;;;;2.07;100.00;101150.88;5093221;28;20025;-36
2022/01/07 04:32:37;;;;;;;8.95;3.80;;;;;;;2.09;100.00;101150.72;5092437;28;20084;-36
2022/01/07 04:35:03;;;;;;;8.35;4.05;;;;;;;2.10;100.00;101131.88;5096379;28;20032;-35
2022/01/07 04:37:28;;;;;;;;;;;;;;;2.17;100.00;101143.53;5097137;28;20047;-36
2022/01/07 04:39:53;;;;;;;5.90;3.97;;;;;;;2.17;100.00;101140.03;5097239;28;20004;-36
2022/01/07 04:42:19;;;;;;;7.53;4.17;;;;;;;2.17;100.00;101138.19;5096810;28;20169;-36
2022/01/07 04:44:44;;;;;;;9.30;4.20;;;;;;;2.20;100.00;101137.88;5096849;28;20487;-36
2022/01/07 04:47:09;;;;;;;7.97;4.10;;;;;;;2.18;100.00;101137.19;5096441;28;20038;-35
2022/01/07 04:49:36;;;;;;;8.10;4.30;;;;;;;2.17;100.00;101113.34;5096726;28;20024;-35
2022/01/07 04:52:03;;;;;;;9.60;4.40;;;;;;;2.06;100.00;101096.72;5077521;28;20138;-36
2022/01/07 04:54:29;;;;;;;8.73;4.55;;;;;;;2.20;100.00;101119.19;5096123;28;20024;-36
2022/01/07 04:56:54;;;;;;;6.78;4.00;;;;;;;2.23;100.00;101116.16;5096280;28;20024;-35
2022/01/07 04:59:20;;;;;;;7.27;4.60;;;;;;;2.26;100.00;101125.69;5096531;28;20024;-36
2022/01/07 05:01:45;;;;;;;7.73;4.10;;;;;;;2.33;100.00;101124.81;5096493;28;20032;-35
2022/01/07 05:04:10;;;;;;;7.40;4.10;;;;;;;2.40;100.00;101124.16;5096566;28;20082;-36
2022/01/07 05:09:01;;;;;;;10.80;5.20;;;;;;;2.32;100.00;101106.31;5096740;28;20044;-36
2022/01/07 05:11:27;;;;;;;9.17;5.37;;;;;;;2.32;100.00;101099.13;5095616;28;20028;-35
2022/01/07 05:13:52;;;;;;;9.00;5.07;;;;;;;2.42;100.00;101116.81;5096513;28;20028;-35
2022/01/07 05:16:17;;;;;;;9.63;5.33;;;;;;;2.46;100.00;101110.94;5096210;28;20455;-36
2022/01/07 05:18:42;;;;;;;11.03;6.10;;;;;;;2.47;100.00;101098.44;5077289;28;20059;-36
2022/01/07 05:21:08;;;;;;;11.10;5.47;;;;;;;2.49;100.00;101099.94;5096481;28;20075;-36
2022/01/07 05:23:33;;;;;;;8.50;5.73;;;;;;;2.49;100.00;101101.75;5095532;28;20119;-36
2022/01/07 05:25:59;;;;;;;9.27;5.97;;;;;;;2.53;100.00;101100.41;5095489;28;20059;-36
2022/01/07 05:28:24;;;;;;;9.57;5.90;;;;;;;2.47;100.00;101095.75;5096488;28;20027;-35
2022/01/07 05:30:49;;;;;;;7.87;6.37;;;;;;;2.55;100.00;101104.59;5095601;28;20024;-36
2022/01/07 05:33:15;;;;;;;11.43;5.87;;;;;;;2.57;100.00;101109.75;5096257;28;20021;-36
2022/01/07 05:35:40;;;;;;;9.30;5.90;;;;;;;2.51;100.00;101089.91;5096488;28;20028;-36
2022/01/07 05:38:05;;;;;;;8.03;5.67;;;;;;;2.60;100.00;101100.56;5095531;28;20471;-35
2022/01/07 05:40:31;;;;;;;13.07;5.83;;;;;;;2.60;100.00;101105.91;5095268;28;20503;-36
2022/01/07 05:42:56;;;;;;;12.37;5.57;;;;;;;2.62;100.00;101115.41;5095785;28;20028;-36
2022/01/07 05:45:21;;;;;;;8.00;5.77;;;;;;;2.66;100.00;101107.88;5095695;28;20063;-36
2022/01/07 05:47:47;;;;;;;11.17;5.90;;;;;;;2.68;100.00;101092.50;5095137;28;20024;-36
2022/01/07 05:50:13;;;;;;;9.43;6.03;;;;;;;2.62;100.00;101077.19;5095602;28;20101;-35
2022/01/07 05:52:38;;;;;;;8.63;5.72;;;;;;;2.71;100.00;101097.50;5096002;28;20036;-35
2022/01/07 05:55:05;;;;;;;9.00;6.67;;;;;;;2.73;100.00;101103.50;5096090;28;20038;-36
2022/01/07 05:57:31;;;;;;;11.25;6.18;;;;;;;2.73;100.00;101080.34;5095242;28;20081;-36
2022/01/07 05:59:56;;;;;;;11.48;6.20;;;;;;;2.68;100.00;101069.31;5095285;28;20468;-36
2022/01/07 06:02:22;;;;;;;10.33;6.27;;;;;;;2.76;100.00;101087.16;5095418;28;20380;-35
2022/01/07 06:04:47;;;;;;;10.63;7.00;;;;;;;2.78;100.00;101091.31;5095542;28;20032;-36
2022/01/07 06:07:12;;;;;;;10.17;6.50;;;;;;;2.62;100.00;101059.31;5094855;28;20559;-36
2022/01/07 06:09:38;;;;;;;17.73;6.80;;;;;;;2.63;100.00;101055.66;5095114;28;20111;-36
2022/01/07 06:12:03;;;;;;;10.27;6.50;;;;;;;2.84;100.00;101087.13;5094876;28;20059;-36
2022/01/07 06:14:29;;;;;;;9.20;6.82;;;;;;;2.85;100.00;101099.47;5094846;28;20066;-36
2022/01/07 06:16:54;;;;;;;11.30;7.37;;;;;;;2.81;100.00;101085.63;5094781;28;20123;-36
2022/01/07 06:19:20;;;;;;;10.27;7.07;;;;;;;2.89;100.00;101090.09;5094717;28;20040;-36
2022/01/07 06:21:46;;;;;;;12.02;7.63;;;;;;;2.88;100.00;101093.78;5094547;28;20039;-35
2022/01/07 06:24:11;;;;;;;10.85;6.88;;;;;;;2.93;100.00;101096.75;5094558;28;20376;-36
2022/01/07 06:26:38;;;;;;;11.60;7.83;;;;;;;2.95;100.00;101097.41;5094511;28;20028;-36
2022/01/07 06:29:03;;;;;;;;;;;;;;;2.98;100.00;101097.06;5095489;28;20056;-36
2022/01/07 06:31:29;;;;;;;10.60;7.30;;;;;;;2.95;100.00;101088.56;5094428;28;20340;-36
2022/01/07 06:33:54;;;;;;;16.53;7.10;;;;;;;2.98;100.00;101094.38;5094728;28;20115;-36
2022/01/07 06:36:20;;;;;;;14.57;7.53;;;;;;;2.98;100.00;101093.56;5095070;28;20105;-35
2022/01/07 06:38:45;;;;;;;12.63;7.33;;;;;;;3.01;100.00;101091.34;5094408;28;20464;-36
2022/01/07 06:41:10;;;;;;;12.93;7.83;;;;;;;3.00;100.00;101099.56;5094648;28;20031;-36
2022/01/07 06:43:36;;;;;;;11.63;7.80;;;;;;;3.04;100.00;101100.88;5094296;28;20032;-36
2022/01/07 06:46:01;;;;;;;11.83;7.50;;;;;;;3.05;100.00;101099.84;5094241;28;20111;-36
2022/01/07 06:48:26;;;;;;;11.77;7.00;;;;;;;3.09;100.00;101090.47;5094133;28;20057;-36
2022/01/07 06:50:52;;;;;;;13.07;8.17;;;;;;;2.98;100.00;101073.03;5094064;28;20494;-36
2022/01/07 06:53:17;;;;;;;9.83;7.17;;;;;;;3.11;100.00;101096.47;5094183;28;20460;-36
2022/01/07 06:55:43;;;;;;;11.63;7.03;;;;;;;3.11;100.00;101091.13;5094682;28;20028;-36
2022/01/07 06:58:08;;;;;;;15.77;8.33;;;;;;;3.11;100.00;101096.47;5093481;28;20028;-36
2022/01/07 07:00:33;;;;;;;11.83;6.57;;;;;;;3.06;100.00;101077.47;5094290;28;20117;-36
2022/01/07 07:02:59;;;;;;;13.63;7.37;;;;;;;3.13;100.00;101086.47;5093730;28;20020;-36
2022/01/07 07:05:24;;;;;;;13.53;7.57;;;;;;;3.17;100.00;101093.09;5093977;28;20088;-36
2022/01/07 07:07:50;;;;;;;11.80;7.67;;;;;;;3.19;100.00;101101.78;5093999;28;20467;-37
2022/01/07 07:10:16;;;;;;;13.07;7.80;;;;;;;3.19;100.00;101101.78;5094151;28;20027;-35
2022/01/07 07:12:41;;;;;;;16.98;8.32;;;;;;;3.21;100.00;101105.09;5093864;28;20483;-36
2022/01/07 07:15:07;;;;;;;19.10;7.47;;;;;;;3.22;100.00;101098.75;5094226;28;20066;-36
2022/01/07 07:17:32;;;;;;;13.38;7.90;;;;;;;3.25;100.00;101106.41;5093705;28;20139;-36
2022/01/07 07:19:57;;;;;;;14.07;7.80;;;;;;;3.23;100.00;101107.63;5093922;28;20067;-36
2022/01/07 07:22:23;;;;;;;17.37;8.67;;;;;;;3.26;100.00;101108.06;5093556;28;20618;-36
2022/01/07 07:24:48;;;;;;;13.13;7.80;;;;;;;3.20;100.00;101092.75;5093387;28;20024;-36
2022/01/07 07:27:13;;;;;;;12.57;7.67;;;;;;;3.30;100.00;101101.38;5093271;28;20024;-36
2022/01/07 07:29:39;;;;;;;12.83;7.83;;;;;;;3.32;100.00;101114.56;5093311;28;20035;-36
2022/01/07 07:32:08;;;;;;;16.10;8.30;;;;;;;3.34;100.00;101120.56;5093026;28;20024;-36
2022/01/07 07:37:05;;;;;;;12.95;8.27;;;;;;;3.34;100.00;101110.69;5093605;28;20138;-37
2022/01/07 07:39:30;;;;;;;14.85;9.00;;;;;;;3.35;100.00;101096.31;5093630;28;20345;-36
2022/01/07 07:41:56;;;;;;;12.37;7.97;;;;;;;3.39;100.00;101090.63;5093546;28;20471;-36
2022/01/07 07:44:21;;;;;;;17.60;8.07;;;;;;;3.39;100.00;101091.47;5093314;28;20047;-36
2022/01/07 07:46:47;;;;;;;15.60;8.07;;;;;;;3.39;100.00;101090.63;5093740;28;20024;-36
2022/01/07 07:49:14;;;;;;;13.13;7.57;;;;;;;3.38;100.00;101084.44;5093233;28;20103;-36
2022/01/07 07:51:39;;;;;;;13.40;7.07;;;;;;;3.42;100.00;101080.41;5092729;28;20024;-36
2022/01/07 07:54:05;;;;;;;12.10;7.97;;;;;;;3.46;100.00;101080.88;5093129;28;20028;-36
2022/01/07 07:56:31;;;;;;;13.30;8.07;;;;;;;3.44;100.00;101088.25;5092840;28;20024;-36
2022/01/07 07:58:58;;;;;;;14.02;9.18;;;;;;;3.34;100.00;101067.09;5093304;28;20024;-36
2022/01/07 08:01:24;;;;;;;;;;;;;;;3.47;100.00;101094.09;5093725;28;20032;-36
2022/01/07 08:03:50;;;;;;;14.20;8.10;;;;;;;3.43;100.00;101084.75;5093610;28;19908;-36
2022/01/07 08:06:16;;;;;;;13.93;7.90;;;;;;;3.44;100.00;101085.56;5093052;28;20035;-36
2022/01/07 08:08:42;;;;;;;;;;;;;;;3.54;100.00;101100.38;5093821;28;20640;-36
2022/01/07 08:11:10;;;;;;;13.20;7.13;;;;;;;3.56;100.00;101105.53;5096682;28;20007;-36
2022/01/07 08:16:20;;;;;;;11.70;7.63;;;;;;;3.58;100.00;101103.53;5097334;28;20043;-36
2022/01/07 08:18:50;;;;;;;;;;;;;;;3.63;100.00;101092.28;5097405;28;20024;-36
2022/01/07 08:21:15;;;;;;;14.00;7.70;;;;;;;3.55;100.00;101077.13;5097510;28;19916;-36
2022/01/07 08:23:42;;;;;;;16.67;8.02;;;;;;;3.61;100.00;101079.06;5096976;28;20490;-36
2022/01/07 08:26:10;;;;;;;14.43;8.38;;;;;;;3.62;100.00;101080.75;5097129;28;20388;-36
2022/01/07 08:28:41;;;;;;;15.73;8.30;;;;;;;3.53;100.00;101068.47;5096803;28;20035;-36
2022/01/07 08:36:19;;;;;;;20.30;9.35;;;;;;;3.67;100.00;101089.06;5096883;28;20392;-36
2022/01/07 08:38:45;;;;;;;17.55;9.10;;;;;;;3.70;100.00;101093.22;5096689;28;20464;-36
2022/01/07 08:41:11;;;;;;;19.13;9.32;;;;;;;3.71;100.00;101087.72;5097343;28;20114;-36
2022/01/07 08:43:37;;;;;;;13.80;8.70;;;;;;;3.64;100.00;101076.06;5096751;28;20111;-36
2022/01/07 08:46:05;;;;;;;16.75;8.75;;;;;;;3.74;100.00;101095.34;5096915;28;20444;-36
2022/01/07 08:48:30;;;;;;;15.65;8.10;;;;;;;3.72;100.00;101092.03;5096608;28;20071;-36
2022/01/07 08:50:56;;;;;;;14.25;8.65;;;;;;;3.76;100.00;101097.88;5097250;28;20051;-36
2022/01/07 08:53:22;;;;;;;19.93;9.53;;;;;;;3.73;100.00;101099.06;5096493;28;20040;-41
2022/01/07 08:55:48;;;;;;;12.43;7.50;;;;;;;3.77;100.00;101100.34;5096137;28;20024;-36
2022/01/07 08:58:13;;;;;;;17.33;8.02;;;;;;;3.80;100.00;101107.19;5096213;28;20048;-42
2022/01/07 09:00:38;;;;;;;18.13;8.27;;;;;;;3.79;100.00;101098.31;5096006;28;20372;-36
2022/01/07 09:03:04;;;;;;;13.17;7.93;;;;;;;3.75;100.00;101096.19;5096082;28;20028;-36
2022/01/07 09:05:29;;;;;;;13.33;7.40;;;;;;;3.84;100.00;101095.94;5096673;28;20077;-36
2022/01/07 09:07:55;;;;;;;13.55;7.05;;;;;;;3.78;100.00;101091.31;5095979;28;20020;-36
2022/01/07 09:10:20;;;;;;;18.03;8.27;;;;;;;3.86;100.00;101107.31;5096314;28;20131;-36
2022/01/07 09:12:46;;;;;;;16.30;7.63;;;;;;;3.86;100.00;101096.59;5095709;28;20047;-36
2022/01/07 09:15:12;;;;;;;12.23;7.47;;;;;;;3.88;100.00;101091.88;5095912;28;20399;-36
2022/01/07 09:17:38;;;;;;;;;;;;;;;3.91;100.00;101097.91;5096231;28;20032;-36
2022/01/07 09:20:05;;;;;;;13.75;7.43;;;;;;;3.87;100.00;101092.09;5095370;28;20461;-36
2022/01/07 09:22:31;;;;;;;16.08;7.00;;;;;;;3.82;100.00;101081.09;5095045;28;20035;-36
2022/01/07 09:24:56;;;;;;;12.88;7.10;;;;;;;3.87;100.00;101084.88;5094805;28;20448;-36
2022/01/07 09:27:22;;;;;;;11.50;7.33;;;;;;;3.92;100.00;101091.53;5094426;28;20095;-36
2022/01/07 09:29:47;;;;;;;14.40;7.53;;;;;;;3.94;100.00;101089.50;5094783;28;20533;-36
2022/01/07 09:32:13;;;;;;;10.67;6.80;;;;;;;3.99;100.00;101095.13;5094010;28;20024;-36
2022/01/07 09:34:38;;;;;;;14.10;7.22;;;;;;;4.02;100.00;101092.94;5094534;28;20036;-36
2022/01/07 09:37:05;;;;;;;14.07;6.83;;;;;;;4.06;100.00;101096.09;5094412;28;20052;-36
2022/01/07 09:39:32;;;;;;;9.38;6.78;;;;;;;4.11;100.00;101086.50;5094373;28;20082;-36
2022/01/07 09:41:59;;;;;;;12.52;6.50;;;;;;;4.17;100.00;101094.81;5094449;28;20387;-36
2022/01/07 09:44:24;;;;;;;14.77;6.85;;;;;;;4.07;100.00;101071.81;5094502;28;20031;-36
2022/01/07 09:46:50;;;;;;;14.70;6.73;;;;;;;4.15;100.00;101078.94;5094271;28;20441;-36
2022/01/07 09:49:16;;;;;;;13.55;6.72;;;;;;;4.18;100.00;101091.94;5094252;28;20060;-36
2022/01/07 09:51:42;;;;;;;16.23;7.13;;;;;;;4.17;100.00;101082.25;5094080;28;20028;-36
2022/01/07 09:54:09;;;;;;;11.80;6.60;;;;;;;4.16;100.00;101064.53;5094145;28;20024;-36
2022/01/07 09:56:34;;;;;;;13.35;6.55;;;;;;;4.21;100.00;101080.88;5094083;28;20088;-36
2022/01/07 09:59:04;;;;;;;11.40;6.07;;;;;;;4.30;100.00;101076.28;5094420;28;20024;-36
2022/01/07 10:01:29;;;;;;;12.57;6.30;;;;;;;4.35;100.00;101069.34;5093686;28;20031;-36
2022/01/07 10:03:56;;;;;;;10.23;5.73;;;;;;;4.39;100.00;101072.47;5093993;28;20031;-36
2022/01/07 10:06:22;;;;;;;;;;;;;;;4.45;100.00;101070.91;5094859;28;20050;-36
2022/01/07 10:09:05;;;;;;;12.10;5.88;;;;;;;4.45;100.00;101063.72;5094072;28;19908;-36
2022/01/07 10:11:30;;;;;;;12.13;5.50;;;;;;;4.55;100.00;101066.94;5094057;28;20028;-36
2022/01/07 10:14:17;;;;;;;10.03;5.83;;;;;;;4.76;100.00;101073.38;5094302;28;20480;-36
2022/01/07 10:16:59;;;;;;;10.13;6.13;;;;;;;4.80;100.00;101069.31;5093764;28;20105;-36
2022/01/07 10:19:42;;;;;;;15.13;6.47;;;;;;;4.87;99.88;101073.72;5056734;28;1065265;-37
2022/01/07 10:22:14;;;;;;;18.23;6.40;;;;;;;4.83;99.43;101047.47;5094405;28;20040;-36
2022/01/07 10:25:00;;;;;;;10.57;5.43;;;;;;;4.90;98.76;101056.44;5094600;28;20533;-36
2022/01/07 10:27:33;;;;;;;14.70;5.30;;;;;;;4.86;98.62;101071.22;5094525;28;20055;-36
2022/01/07 10:29:59;;;;;;;14.15;5.47;;;;;;;4.81;98.25;101061.06;5094473;28;20741;-36
2022/01/07 10:32:26;;;;;;;12.57;5.43;;;;;;;4.83;98.27;101058.19;5093219;28;20020;-36
2022/01/07 10:35:04;;;;;;;14.77;5.10;;;;;;;4.80;98.10;101034.47;5094690;28;20430;-36
2022/01/07 10:37:30;;;;;;;11.18;5.30;;;;;;;4.91;98.54;101050.88;5094435;28;20035;-36
2022/01/07 10:39:55;;;;;;;10.93;5.13;;;;;;;5.03;99.25;101053.91;5094740;28;20032;-36
2022/01/07 10:42:27;;;;;;;13.15;5.00;;;;;;;5.07;97.87;101057.84;5094961;28;20055;-36
2022/01/07 10:45:02;;;;;;;10.05;4.35;;;;;;;5.19;97.54;101047.47;5094543;28;20028;-36
2022/01/07 10:47:28;;;;;;;11.18;4.85;;;;;;;5.22;96.32;101046.25;5094321;28;20109;-36
2022/01/07 10:50:16;;;;;;;11.73;5.25;;;;;;;5.33;97.22;101049.28;5094229;28;20050;-36
2022/01/07 10:52:42;;;;;;;13.38;5.38;;;;;;;5.32;95.78;101044.94;5093983;28;20110;-36
2022/01/07 10:55:16;;;;;;;12.15;5.50;;;;;;;5.36;96.69;101040.81;5094359;28;20188;-36
2022/01/07 10:57:44;;;;;;;10.25;4.40;;;;;;;5.38;94.73;101038.81;5094566;28;20411;-36
2022/01/07 11:00:15;;;;;;;11.48;4.20;;;;;;;5.31;95.82;101018.28;5094048;28;20114;-36
2022/01/07 11:02:40;;;;;;;8.57;4.65;;;;;;;5.43;95.11;101009.56;5093998;28;20028;-36
2022/01/07 11:05:07;;;;;;;10.20;3.30;;;;;;;5.49;93.58;101007.94;5093707;28;20028;-36
2022/01/07 11:07:33;;;;;;;7.20;3.08;;;;;;;5.52;94.10;101014.78;5093552;28;20495;-36
2022/01/07 11:09:59;;;;;;;7.75;3.33;;;;;;;5.49;91.92;101016.00;5093958;28;20048;-36
2022/01/07 11:12:27;;;;;;;8.23;3.33;;;;;;;5.59;92.31;101023.72;5093759;28;20426;-36
2022/01/07 11:14:52;;;;;;;9.93;3.47;;;;;;;5.66;91.41;101032.63;5094524;28;20258;-36
2022/01/07 11:17:21;;;;;;;11.95;3.30;;;;;;;5.65;92.35;101025.59;5093718;28;20081;-36
2022/01/07 11:20:02;;;;;;;11.70;3.42;;;;;;;5.66;93.02;101021.91;5093457;28;20040;-36
2022/01/07 11:22:29;;;;;;;8.18;3.33;;;;;;;5.68;93.08;101026.06;5094206;28;20357;-36
2022/01/07 11:25:10;;;;;;;12.25;3.88;;;;;;;5.64;91.40;101035.50;5093843;28;20426;-36
2022/01/07 11:27:48;;;;;;;9.18;3.63;;;;;;;5.58;91.61;101036.28;5093582;28;20055;-36
2022/01/07 11:30:17;;;;;;;8.73;3.25;;;;;;;5.45;90.67;101028.13;5093779;28;20078;-36
2022/01/07 11:32:47;;;;;;;8.48;3.38;;;;;;;5.39;91.78;101020.84;5093073;28;20024;-37
2022/01/07 11:35:21;;;;;;;9.90;3.35;;;;;;;5.43;91.01;101028.31;5093775;28;20024;-36